This is the latest recevied weather packets stored in our database for station/object KK4PWJ-13. If no packets are shown the sender has not sent any weather packets the latest 10 day(s).
| Time | Temp. | Humidity | Pressure | Rain* | Wind** | Luminosity | Snow |
|---|---|---|---|---|---|---|---|
| 1777765963 | 11.67° C | 79% | 1010.6 hPa | 0 mm | - | 5 W/m² | - |
| 1777764749 | 12.78° C | 76% | 1010.1 hPa | 0 mm | - | 18 W/m² | - |
| 1777764445 | 12.78° C | 74% | 1010.1 hPa | 0 mm | - | 25 W/m² | - |
| 1777764142 | 12.78° C | 74% | 1010.2 hPa | 0 mm | - | 24 W/m² | - |
| 1777763537 | 12.78° C | 76% | 1009.8 hPa | 0 mm | - | 16 W/m² | - |
| 1777761719 | 13.33° C | 70% | 1010.1 hPa | 0 mm | - | 30 W/m² | - |
| 1777761115 | 13.89° C | 65% | 1009.8 hPa | 0 mm | - | 44 W/m² | - |
| 1777760812 | 13.89° C | 65% | 1009.8 hPa | 0 mm | - | 48 W/m² | - |
| 1777760204 | 13.89° C | 60% | 1009.9 hPa | 0 mm | - | 84 W/m² | - |
| 1777759597 | 13.33° C | 65% | 1009.8 hPa | 0 mm | - | 84 W/m² | - |
| 1777759294 | 13.33° C | 65% | 1009.7 hPa | 0 mm | - | 88 W/m² | - |
| 1777758688 | 13.89° C | 62% | 1009.8 hPa | 0 mm | - | 62 W/m² | - |
| 1777757779 | 13.89° C | 61% | 1009.7 hPa | 0 mm | - | 59 W/m² | - |
| 1777757175 | 13.89° C | 61% | 1009.9 hPa | 0 mm | - | 81 W/m² | - |
| 1777756873 | 13.89° C | 60% | 1009.7 hPa | 0 mm | - | 83 W/m² | - |
| 1777756568 | 13.89° C | 60% | 1009.9 hPa | 0 mm | - | 74 W/m² | - |
| 1777756266 | 13.89° C | 64% | 1009.8 hPa | 0 mm | - | 71 W/m² | - |
| 1777755356 | 13.89° C | 64% | 1010.1 hPa | 0 mm | - | 70 W/m² | - |
| 1777755054 | 13.89° C | 62% | 1009.9 hPa | 0 mm | - | 73 W/m² | - |
| 1777754449 | 13.89° C | 61% | 1009.9 hPa | 0 mm | - | 80 W/m² | - |
| 1777754145 | 13.89° C | 60% | 1009.9 hPa | 0 mm | - | 87 W/m² | - |
| 1777753842 | 13.89° C | 62% | 1010 hPa | 0 mm | - | 77 W/m² | - |
| 1777753538 | 13.89° C | 62% | 1010 hPa | 0 mm | - | 77 W/m² | - |
| 1777753236 | 14.44° C | 61% | 1010 hPa | 0 mm | - | 82 W/m² | - |
| 1777752932 | 14.44° C | 64% | 1009.9 hPa | 0 mm | - | 86 W/m² | - |
* Rain latest hour (hover to see other rain measurements)
** Current wind speed in m/s (hover to see current wind gust speed)